sensor_id;sensor_type;location;lat;lon;timestamp;temperature;humidity
23591;DHT22;11973;52.098;7.582;2024-01-15T00:00:05;1.80;99.90
23591;DHT22;11973;52.098;7.582;2024-01-15T00:02:36;1.70;99.90
23591;DHT22;11973;52.098;7.582;2024-01-15T00:05:02;1.70;99.90
23591;DHT22;11973;52.098;7.582;2024-01-15T00:07:27;1.70;99.90
23591;DHT22;11973;52.098;7.582;2024-01-15T00:09:53;1.70;99.90
23591;DHT22;11973;52.098;7.582;2024-01-15T00:12:19;1.80;99.90
23591;DHT22;11973;52.098;7.582;2024-01-15T00:14:45;1.70;99.90
23591;DHT22;11973;52.098;7.582;2024-01-15T00:17:10;1.70;99.90
23591;DHT22;11973;52.098;7.582;2024-01-15T00:19:36;1.70;99.90
23591;DHT22;11973;52.098;7.582;2024-01-15T00:22:02;1.80;99.90
23591;DHT22;11973;52.098;7.582;2024-01-15T00:24:28;1.80;99.90
23591;DHT22;11973;52.098;7.582;2024-01-15T00:26:53;1.80;99.90
23591;DHT22;11973;52.098;7.582;2024-01-15T00:29:19;1.70;99.90
23591;DHT22;11973;52.098;7.582;2024-01-15T05:17:39;1.30;99.90
23591;DHT22;11973;52.098;7.582;2024-01-15T05:20:05;1.30;99.90
23591;DHT22;11973;52.098;7.582;2024-01-15T05:22:31;1.30;99.90
23591;DHT22;11973;52.098;7.582;2024-01-15T05:24:59;1.30;99.90
23591;DHT22;11973;52.098;7.582;2024-01-15T05:27:25;1.20;99.90
23591;DHT22;11973;52.098;7.582;2024-01-15T05:29:51;1.40;99.90
23591;DHT22;11973;52.098;7.582;2024-01-15T05:33:01;1.40;99.90
23591;DHT22;11973;52.098;7.582;2024-01-15T05:35:28;1.40;99.90
23591;DHT22;11973;52.098;7.582;2024-01-15T05:37:54;1.50;99.90
23591;DHT22;11973;52.098;7.582;2024-01-15T05:40:19;1.40;99.90
23591;DHT22;11973;52.098;7.582;2024-01-15T05:42:45;1.40;99.90
23591;DHT22;11973;52.098;7.582;2024-01-15T05:45:11;1.50;99.90
23591;DHT22;11973;52.098;7.582;2024-01-15T05:47:37;1.50;99.90
23591;DHT22;11973;52.098;7.582;2024-01-15T05:50:03;1.40;99.90
23591;DHT22;11973;52.098;7.582;2024-01-15T05:52:28;1.50;99.90
23591;DHT22;11973;52.098;7.582;2024-01-15T05:54:54;1.50;99.90
23591;DHT22;11973;52.098;7.582;2024-01-15T05:57:20;1.50;99.90
23591;DHT22;11973;52.098;7.582;2024-01-15T05:59:46;1.50;99.90
23591;DHT22;11973;52.098;7.582;2024-01-15T06:02:12;1.50;99.90
23591;DHT22;11973;52.098;7.582;2024-01-15T06:04:38;1.50;99.90
23591;DHT22;11973;52.098;7.582;2024-01-15T06:07:03;1.50;99.90
23591;DHT22;11973;52.098;7.582;2024-01-15T06:09:29;1.50;99.90
23591;DHT22;11973;52.098;7.582;2024-01-15T06:11:55;1.50;99.90
23591;DHT22;11973;52.098;7.582;2024-01-15T06:14:21;1.40;99.90
23591;DHT22;11973;52.098;7.582;2024-01-15T06:16:46;1.50;99.90
23591;DHT22;11973;52.098;7.582;2024-01-15T06:19:12;1.50;99.90
23591;DHT22;11973;52.098;7.582;2024-01-15T06:21:38;1.60;99.90
23591;DHT22;11973;52.098;7.582;2024-01-15T06:24:04;1.50;99.90
23591;DHT22;11973;52.098;7.582;2024-01-15T06:26:30;1.50;99.90
23591;DHT22;11973;52.098;7.582;2024-01-15T06:28:55;1.50;99.90
23591;DHT22;11973;52.098;7.582;2024-01-15T06:31:21;1.50;99.90
23591;DHT22;11973;52.098;7.582;2024-01-15T06:33:47;1.50;99.90
23591;DHT22;11973;52.098;7.582;2024-01-15T06:36:14;1.60;99.90
23591;DHT22;11973;52.098;7.582;2024-01-15T06:38:43;1.50;99.90
23591;DHT22;11973;52.098;7.582;2024-01-15T06:41:09;1.50;99.90
23591;DHT22;11973;52.098;7.582;2024-01-15T06:43:35;1.50;99.90
23591;DHT22;11973;52.098;7.582;2024-01-15T06:46:01;1.50;99.90
23591;DHT22;11973;52.098;7.582;2024-01-15T06:48:27;1.60;99.90
23591;DHT22;11973;52.098;7.582;2024-01-15T06:50:52;1.40;99.90
23591;DHT22;11973;52.098;7.582;2024-01-15T06:53:18;1.40;99.90
23591;DHT22;11973;52.098;7.582;2024-01-15T06:55:44;1.40;99.90
23591;DHT22;11973;52.098;7.582;2024-01-15T06:58:10;1.40;99.90
23591;DHT22;11973;52.098;7.582;2024-01-15T07:00:36;1.40;99.90
23591;DHT22;11973;52.098;7.582;2024-01-15T07:03:02;1.40;99.90
23591;DHT22;11973;52.098;7.582;2024-01-15T07:05:27;1.40;99.90
23591;DHT22;11973;52.098;7.582;2024-01-15T07:07:55;1.30;99.90
23591;DHT22;11973;52.098;7.582;2024-01-15T07:10:21;1.30;99.90
23591;DHT22;11973;52.098;7.582;2024-01-15T07:12:47;1.30;99.90
23591;DHT22;11973;52.098;7.582;2024-01-15T07:15:13;1.30;99.90
23591;DHT22;11973;52.098;7.582;2024-01-15T07:17:39;1.30;99.90
23591;DHT22;11973;52.098;7.582;2024-01-15T07:20:08;1.30;99.90
23591;DHT22;11973;52.098;7.582;2024-01-15T07:22:37;1.30;99.90
23591;DHT22;11973;52.098;7.582;2024-01-15T07:25:03;1.30;99.90
23591;DHT22;11973;52.098;7.582;2024-01-15T07:27:31;1.30;99.90
23591;DHT22;11973;52.098;7.582;2024-01-15T07:29:57;1.30;99.90
23591;DHT22;11973;52.098;7.582;2024-01-15T07:32:23;1.40;99.90
23591;DHT22;11973;52.098;7.582;2024-01-15T07:34:49;1.30;99.90
23591;DHT22;11973;52.098;7.582;2024-01-15T07:37:15;1.30;99.90
23591;DHT22;11973;52.098;7.582;2024-01-15T07:39:41;1.40;99.90
23591;DHT22;11973;52.098;7.582;2024-01-15T07:42:07;1.40;99.90
23591;DHT22;11973;52.098;7.582;2024-01-15T07:44:33;1.30;99.90
23591;DHT22;11973;52.098;7.582;2024-01-15T07:46:59;1.40;99.90
23591;DHT22;11973;52.098;7.582;2024-01-15T07:49:25;1.40;99.90
23591;DHT22;11973;52.098;7.582;2024-01-15T07:51:50;1.30;99.90
23591;DHT22;11973;52.098;7.582;2024-01-15T07:54:16;1.30;99.90
23591;DHT22;11973;52.098;7.582;2024-01-15T07:57:01;1.40;99.90
23591;DHT22;11973;52.098;7.582;2024-01-15T07:59:28;1.30;99.90
23591;DHT22;11973;52.098;7.582;2024-01-15T08:01:54;1.30;99.90
23591;DHT22;11973;52.098;7.582;2024-01-15T08:04:20;1.30;99.90
23591;DHT22;11973;52.098;7.582;2024-01-15T08:06:47;1.30;99.90
23591;DHT22;11973;52.098;7.582;2024-01-15T08:09:13;1.30;99.90
23591;DHT22;11973;52.098;7.582;2024-01-15T08:11:40;1.30;99.90
23591;DHT22;11973;52.098;7.582;2024-01-15T08:14:07;1.30;99.90
23591;DHT22;11973;52.098;7.582;2024-01-15T08:16:33;1.30;99.90
23591;DHT22;11973;52.098;7.582;2024-01-15T08:18:59;1.30;99.90
23591;DHT22;11973;52.098;7.582;2024-01-15T08:21:24;1.30;99.90
23591;DHT22;11973;52.098;7.582;2024-01-15T08:23:50;1.40;99.90
23591;DHT22;11973;52.098;7.582;2024-01-15T08:26:16;1.30;99.90
23591;DHT22;11973;52.098;7.582;2024-01-15T08:28:42;1.30;99.90
23591;DHT22;11973;52.098;7.582;2024-01-15T08:31:07;1.30;99.90
23591;DHT22;11973;52.098;7.582;2024-01-15T08:33:33;1.40;99.90
23591;DHT22;11973;52.098;7.582;2024-01-15T08:35:59;1.50;99.90
23591;DHT22;11973;52.098;7.582;2024-01-15T08:38:25;1.50;99.90
23591;DHT22;11973;52.098;7.582;2024-01-15T08:40:51;1.50;99.90
23591;DHT22;11973;52.098;7.582;2024-01-15T08:43:18;1.50;99.90
23591;DHT22;11973;52.098;7.582;2024-01-15T08:45:44;1.50;99.90
23591;DHT22;11973;52.098;7.582;2024-01-15T08:48:10;1.50;99.90
23591;DHT22;11973;52.098;7.582;2024-01-15T08:50:36;1.50;99.90
23591;DHT22;11973;52.098;7.582;2024-01-15T08:53:02;1.60;99.90
23591;DHT22;11973;52.098;7.582;2024-01-15T08:55:28;1.50;99.90
23591;DHT22;11973;52.098;7.582;2024-01-15T08:57:54;1.60;99.90
23591;DHT22;11973;52.098;7.582;2024-01-15T09:00:20;1.50;99.90
23591;DHT22;11973;52.098;7.582;2024-01-15T09:02:45;1.50;99.90
23591;DHT22;11973;52.098;7.582;2024-01-15T09:05:11;1.50;99.90
23591;DHT22;11973;52.098;7.582;2024-01-15T09:07:37;1.40;99.90
23591;DHT22;11973;52.098;7.582;2024-01-15T09:10:03;1.40;99.90
23591;DHT22;11973;52.098;7.582;2024-01-15T09:12:29;1.40;99.90
23591;DHT22;11973;52.098;7.582;2024-01-15T09:14:55;1.40;99.90
23591;DHT22;11973;52.098;7.582;2024-01-15T09:17:21;1.40;99.90
23591;DHT22;11973;52.098;7.582;2024-01-15T09:19:49;1.40;99.90
23591;DHT22;11973;52.098;7.582;2024-01-15T09:22:15;1.40;99.90
23591;DHT22;11973;52.098;7.582;2024-01-15T09:24:47;1.40;99.90
23591;DHT22;11973;52.098;7.582;2024-01-15T09:27:13;1.50;99.90
23591;DHT22;11973;52.098;7.582;2024-01-15T09:29:39;1.60;99.90
23591;DHT22;11973;52.098;7.582;2024-01-15T09:32:07;1.70;99.90
23591;DHT22;11973;52.098;7.582;2024-01-15T09:34:36;1.60;99.90
23591;DHT22;11973;52.098;7.582;2024-01-15T09:37:01;1.70;99.90
23591;DHT22;11973;52.098;7.582;2024-01-15T09:39:28;1.80;99.90
23591;DHT22;11973;52.098;7.582;2024-01-15T09:41:54;1.80;99.90
23591;DHT22;11973;52.098;7.582;2024-01-15T09:44:21;1.80;99.90
23591;DHT22;11973;52.098;7.582;2024-01-15T09:46:47;1.80;99.90
23591;DHT22;11973;52.098;7.582;2024-01-15T09:49:16;1.80;99.90
23591;DHT22;11973;52.098;7.582;2024-01-15T09:51:42;1.90;99.90
23591;DHT22;11973;52.098;7.582;2024-01-15T09:54:09;1.90;99.90
23591;DHT22;11973;52.098;7.582;2024-01-15T09:56:35;1.90;99.90
23591;DHT22;11973;52.098;7.582;2024-01-15T09:59:01;2.00;99.90
23591;DHT22;11973;52.098;7.582;2024-01-15T10:01:31;2.00;99.90
23591;DHT22;11973;52.098;7.582;2024-01-15T10:03:58;2.00;99.90
23591;DHT22;11973;52.098;7.582;2024-01-15T10:06:26;2.00;99.90
23591;DHT22;11973;52.098;7.582;2024-01-15T10:08:54;2.10;99.90
23591;DHT22;11973;52.098;7.582;2024-01-15T10:11:20;2.10;99.90
23591;DHT22;11973;52.098;7.582;2024-01-15T10:13:46;2.10;99.90
23591;DHT22;11973;52.098;7.582;2024-01-15T10:16:12;2.10;99.90
23591;DHT22;11973;52.098;7.582;2024-01-15T10:18:38;2.20;99.90
23591;DHT22;11973;52.098;7.582;2024-01-15T10:21:08;2.20;99.90
23591;DHT22;11973;52.098;7.582;2024-01-15T10:23:34;2.30;99.90
23591;DHT22;11973;52.098;7.582;2024-01-15T10:26:00;2.40;99.90
23591;DHT22;11973;52.098;7.582;2024-01-15T10:28:26;2.40;99.90
23591;DHT22;11973;52.098;7.582;2024-01-15T10:30:57;2.30;99.90
23591;DHT22;11973;52.098;7.582;2024-01-15T10:33:24;2.30;99.90
23591;DHT22;11973;52.098;7.582;2024-01-15T10:36:00;2.30;99.90
23591;DHT22;11973;52.098;7.582;2024-01-15T10:38:27;2.30;99.90
23591;DHT22;11973;52.098;7.582;2024-01-15T10:40:53;2.30;99.90
23591;DHT22;11973;52.098;7.582;2024-01-15T10:43:20;2.30;99.90
23591;DHT22;11973;52.098;7.582;2024-01-15T10:45:46;2.40;99.90
23591;DHT22;11973;52.098;7.582;2024-01-15T10:48:13;2.30;99.90
23591;DHT22;11973;52.098;7.582;2024-01-15T10:50:38;2.30;99.90
23591;DHT22;11973;52.098;7.582;2024-01-15T10:53:05;2.30;99.90
23591;DHT22;11973;52.098;7.582;2024-01-15T10:55:35;2.40;99.90
23591;DHT22;11973;52.098;7.582;2024-01-15T10:58:02;2.50;99.90
23591;DHT22;11973;52.098;7.582;2024-01-15T11:00:29;2.50;99.90
23591;DHT22;11973;52.098;7.582;2024-01-15T11:02:55;2.50;99.90
23591;DHT22;11973;52.098;7.582;2024-01-15T11:05:22;2.60;99.90
23591;DHT22;11973;52.098;7.582;2024-01-15T11:07:48;2.60;99.90
23591;DHT22;11973;52.098;7.582;2024-01-15T11:13:14;2.70;99.90
23591;DHT22;11973;52.098;7.582;2024-01-15T11:16:02;2.70;99.90
23591;DHT22;11973;52.098;7.582;2024-01-15T11:18:39;2.80;99.90
23591;DHT22;11973;52.098;7.582;2024-01-15T11:24:01;3.00;99.90
23591;DHT22;11973;52.098;7.582;2024-01-15T11:26:37;3.00;99.90
23591;DHT22;11973;52.098;7.582;2024-01-15T11:29:29;3.00;99.90
23591;DHT22;11973;52.098;7.582;2024-01-15T11:34:21;3.10;99.90
23591;DHT22;11973;52.098;7.582;2024-01-15T11:41:58;3.20;99.90
23591;DHT22;11973;52.098;7.582;2024-01-15T11:44:23;3.30;99.90
23591;DHT22;11973;52.098;7.582;2024-01-15T11:47:04;3.30;99.90
23591;DHT22;11973;52.098;7.582;2024-01-15T11:52:18;3.40;99.90
23591;DHT22;11973;52.098;7.582;2024-01-15T11:57:52;3.20;99.90
23591;DHT22;11973;52.098;7.582;2024-01-15T12:00:18;3.20;99.90
23591;DHT22;11973;52.098;7.582;2024-01-15T12:02:45;3.20;99.90
23591;DHT22;11973;52.098;7.582;2024-01-15T12:05:13;3.10;99.90
23591;DHT22;11973;52.098;7.582;2024-01-15T12:07:40;3.10;99.90
23591;DHT22;11973;52.098;7.582;2024-01-15T12:10:13;3.10;99.90
23591;DHT22;11973;52.098;7.582;2024-01-15T12:12:46;3.20;99.90
23591;DHT22;11973;52.098;7.582;2024-01-15T12:15:14;3.10;99.90
23591;DHT22;11973;52.098;7.582;2024-01-15T12:17:40;3.10;99.90
23591;DHT22;11973;52.098;7.582;2024-01-15T12:20:06;3.10;99.90
23591;DHT22;11973;52.098;7.582;2024-01-15T12:22:32;3.00;99.90
23591;DHT22;11973;52.098;7.582;2024-01-15T12:24:58;3.00;99.90
23591;DHT22;11973;52.098;7.582;2024-01-15T12:27:25;2.90;99.90
23591;DHT22;11973;52.098;7.582;2024-01-15T12:29:50;2.90;99.90
23591;DHT22;11973;52.098;7.582;2024-01-15T12:32:19;2.90;99.90
23591;DHT22;11973;52.098;7.582;2024-01-15T12:34:44;2.80;99.90
23591;DHT22;11973;52.098;7.582;2024-01-15T12:37:11;2.80;99.90
23591;DHT22;11973;52.098;7.582;2024-01-15T12:39:37;2.80;99.90
23591;DHT22;11973;52.098;7.582;2024-01-15T12:42:04;2.80;99.90
23591;DHT22;11973;52.098;7.582;2024-01-15T12:44:31;2.80;99.90
23591;DHT22;11973;52.098;7.582;2024-01-15T12:46:57;2.90;99.90
23591;DHT22;11973;52.098;7.582;2024-01-15T12:49:24;2.80;99.90
23591;DHT22;11973;52.098;7.582;2024-01-15T12:51:53;2.80;99.90
23591;DHT22;11973;52.098;7.582;2024-01-15T12:54:20;2.80;99.90
23591;DHT22;11973;52.098;7.582;2024-01-15T12:56:47;2.70;99.90
23591;DHT22;11973;52.098;7.582;2024-01-15T12:59:13;2.70;99.90
23591;DHT22;11973;52.098;7.582;2024-01-15T13:01:39;2.60;99.90
23591;DHT22;11973;52.098;7.582;2024-01-15T13:04:05;2.60;99.90
23591;DHT22;11973;52.098;7.582;2024-01-15T13:06:35;2.60;99.90
23591;DHT22;11973;52.098;7.582;2024-01-15T13:09:01;2.50;99.90
23591;DHT22;11973;52.098;7.582;2024-01-15T13:11:27;2.50;99.90
23591;DHT22;11973;52.098;7.582;2024-01-15T13:13:53;2.40;99.90
23591;DHT22;11973;52.098;7.582;2024-01-15T13:16:19;2.40;99.90
23591;DHT22;11973;52.098;7.582;2024-01-15T13:18:46;2.40;99.90
23591;DHT22;11973;52.098;7.582;2024-01-15T13:21:12;2.40;99.90
23591;DHT22;11973;52.098;7.582;2024-01-15T13:23:38;2.40;99.90
23591;DHT22;11973;52.098;7.582;2024-01-15T13:26:04;2.40;99.90
23591;DHT22;11973;52.098;7.582;2024-01-15T13:28:30;2.40;99.90
23591;DHT22;11973;52.098;7.582;2024-01-15T13:30:56;2.60;99.90
23591;DHT22;11973;52.098;7.582;2024-01-15T13:33:22;2.50;99.90
23591;DHT22;11973;52.098;7.582;2024-01-15T13:35:48;2.60;99.90
23591;DHT22;11973;52.098;7.582;2024-01-15T13:38:16;2.60;99.90
23591;DHT22;11973;52.098;7.582;2024-01-15T13:40:42;2.70;99.90
23591;DHT22;11973;52.098;7.582;2024-01-15T13:43:07;2.60;99.90
23591;DHT22;11973;52.098;7.582;2024-01-15T13:45:34;2.60;99.90
23591;DHT22;11973;52.098;7.582;2024-01-15T13:48:01;2.60;99.90
23591;DHT22;11973;52.098;7.582;2024-01-15T13:50:31;2.60;99.90
23591;DHT22;11973;52.098;7.582;2024-01-15T13:52:57;2.60;99.90
23591;DHT22;11973;52.098;7.582;2024-01-15T13:55:23;2.70;99.90
23591;DHT22;11973;52.098;7.582;2024-01-15T13:57:48;2.60;99.90
23591;DHT22;11973;52.098;7.582;2024-01-15T14:00:15;2.70;99.90
23591;DHT22;11973;52.098;7.582;2024-01-15T14:02:44;2.70;99.90
23591;DHT22;11973;52.098;7.582;2024-01-15T14:05:10;2.70;99.90
23591;DHT22;11973;52.098;7.582;2024-01-15T14:07:38;2.70;99.90
23591;DHT22;11973;52.098;7.582;2024-01-15T14:10:05;2.70;99.90
23591;DHT22;11973;52.098;7.582;2024-01-15T14:12:33;2.60;99.90
23591;DHT22;11973;52.098;7.582;2024-01-15T14:15:00;2.50;99.90
23591;DHT22;11973;52.098;7.582;2024-01-15T14:17:27;2.50;99.90
23591;DHT22;11973;52.098;7.582;2024-01-15T14:19:52;2.40;99.90
23591;DHT22;11973;52.098;7.582;2024-01-15T14:22:19;2.40;99.90
23591;DHT22;11973;52.098;7.582;2024-01-15T14:24:44;2.30;99.90
23591;DHT22;11973;52.098;7.582;2024-01-15T14:27:10;2.30;99.90
23591;DHT22;11973;52.098;7.582;2024-01-15T14:29:36;2.30;99.90
23591;DHT22;11973;52.098;7.582;2024-01-15T14:32:02;2.30;99.90
23591;DHT22;11973;52.098;7.582;2024-01-15T14:34:28;2.30;99.90
23591;DHT22;11973;52.098;7.582;2024-01-15T14:36:55;2.30;99.90
23591;DHT22;11973;52.098;7.582;2024-01-15T14:39:24;2.30;99.90
23591;DHT22;11973;52.098;7.582;2024-01-15T14:41:51;2.40;99.90
23591;DHT22;11973;52.098;7.582;2024-01-15T14:44:17;2.30;99.90
23591;DHT22;11973;52.098;7.582;2024-01-15T14:46:42;2.20;99.90
23591;DHT22;11973;52.098;7.582;2024-01-15T14:49:08;2.20;99.90
23591;DHT22;11973;52.098;7.582;2024-01-15T14:51:34;2.10;99.90
23591;DHT22;11973;52.098;7.582;2024-01-15T14:54:00;2.10;99.90
23591;DHT22;11973;52.098;7.582;2024-01-15T14:56:25;2.10;99.90
23591;DHT22;11973;52.098;7.582;2024-01-15T14:58:51;2.00;99.90
23591;DHT22;11973;52.098;7.582;2024-01-15T15:01:17;2.00;99.90
23591;DHT22;11973;52.098;7.582;2024-01-15T15:03:43;2.00;99.90
23591;DHT22;11973;52.098;7.582;2024-01-15T15:06:09;2.10;99.90
23591;DHT22;11973;52.098;7.582;2024-01-15T15:08:36;1.90;99.90
23591;DHT22;11973;52.098;7.582;2024-01-15T15:11:03;2.00;99.90
23591;DHT22;11973;52.098;7.582;2024-01-15T15:13:30;1.90;99.90
23591;DHT22;11973;52.098;7.582;2024-01-15T15:15:55;2.00;99.90
23591;DHT22;11973;52.098;7.582;2024-01-15T15:18:21;1.90;99.90
23591;DHT22;11973;52.098;7.582;2024-01-15T15:20:48;1.90;99.90
23591;DHT22;11973;52.098;7.582;2024-01-15T15:23:15;2.10;99.90
23591;DHT22;11973;52.098;7.582;2024-01-15T15:25:41;1.90;99.90
23591;DHT22;11973;52.098;7.582;2024-01-15T15:28:08;2.00;99.90
23591;DHT22;11973;52.098;7.582;2024-01-15T15:30:37;1.90;99.90
23591;DHT22;11973;52.098;7.582;2024-01-15T15:33:03;1.90;99.90
23591;DHT22;11973;52.098;7.582;2024-01-15T15:35:29;1.80;99.90
23591;DHT22;11973;52.098;7.582;2024-01-15T15:37:55;1.80;99.90
23591;DHT22;11973;52.098;7.582;2024-01-15T15:40:20;1.90;99.90
23591;DHT22;11973;52.098;7.582;2024-01-15T15:42:48;1.80;99.90
23591;DHT22;11973;52.098;7.582;2024-01-15T15:45:13;1.70;99.90
23591;DHT22;11973;52.098;7.582;2024-01-15T15:47:39;1.60;99.90
23591;DHT22;11973;52.098;7.582;2024-01-15T15:50:07;1.60;99.90
23591;DHT22;11973;52.098;7.582;2024-01-15T15:52:32;1.50;99.90
23591;DHT22;11973;52.098;7.582;2024-01-15T15:54:58;1.50;99.90
23591;DHT22;11973;52.098;7.582;2024-01-15T15:57:24;1.40;99.90
23591;DHT22;11973;52.098;7.582;2024-01-15T15:59:51;1.40;99.90
23591;DHT22;11973;52.098;7.582;2024-01-15T16:02:20;1.40;99.90
23591;DHT22;11973;52.098;7.582;2024-01-15T16:04:46;1.30;99.90
23591;DHT22;11973;52.098;7.582;2024-01-15T16:07:12;1.20;99.90
23591;DHT22;11973;52.098;7.582;2024-01-15T16:09:39;1.20;99.90
23591;DHT22;11973;52.098;7.582;2024-01-15T16:12:05;1.10;99.90
23591;DHT22;11973;52.098;7.582;2024-01-15T16:14:31;1.20;99.90
23591;DHT22;11973;52.098;7.582;2024-01-15T16:16:57;1.10;99.90
23591;DHT22;11973;52.098;7.582;2024-01-15T16:19:24;1.10;99.90
23591;DHT22;11973;52.098;7.582;2024-01-15T16:21:50;1.10;99.90
23591;DHT22;11973;52.098;7.582;2024-01-15T16:24:16;1.10;99.90
23591;DHT22;11973;52.098;7.582;2024-01-15T16:26:42;1.10;99.90
23591;DHT22;11973;52.098;7.582;2024-01-15T16:29:08;1.10;99.90
23591;DHT22;11973;52.098;7.582;2024-01-15T16:31:34;1.10;99.90
23591;DHT22;11973;52.098;7.582;2024-01-15T16:34:00;1.10;99.90
23591;DHT22;11973;52.098;7.582;2024-01-15T16:36:25;1.10;99.90
23591;DHT22;11973;52.098;7.582;2024-01-15T16:38:52;1.10;99.90
23591;DHT22;11973;52.098;7.582;2024-01-15T16:41:18;1.10;99.90
23591;DHT22;11973;52.098;7.582;2024-01-15T16:43:43;1.20;99.90
23591;DHT22;11973;52.098;7.582;2024-01-15T16:46:10;1.10;99.90
23591;DHT22;11973;52.098;7.582;2024-01-15T16:48:36;1.10;99.90
23591;DHT22;11973;52.098;7.582;2024-01-15T16:51:02;1.10;99.90
23591;DHT22;11973;52.098;7.582;2024-01-15T16:53:28;1.10;99.90
23591;DHT22;11973;52.098;7.582;2024-01-15T16:55:54;1.10;99.90
23591;DHT22;11973;52.098;7.582;2024-01-15T16:58:19;1.10;99.90
23591;DHT22;11973;52.098;7.582;2024-01-15T17:00:48;1.10;99.90
23591;DHT22;11973;52.098;7.582;2024-01-15T17:03:14;1.20;99.90
23591;DHT22;11973;52.098;7.582;2024-01-15T17:05:40;1.10;99.90
23591;DHT22;11973;52.098;7.582;2024-01-15T17:08:06;1.20;99.90
23591;DHT22;11973;52.098;7.582;2024-01-15T17:10:32;1.10;99.90
23591;DHT22;11973;52.098;7.582;2024-01-15T17:12:59;1.10;99.90
23591;DHT22;11973;52.098;7.582;2024-01-15T17:15:30;1.10;99.90
23591;DHT22;11973;52.098;7.582;2024-01-15T17:17:55;1.30;99.90
23591;DHT22;11973;52.098;7.582;2024-01-15T17:20:22;1.20;99.90
23591;DHT22;11973;52.098;7.582;2024-01-15T17:22:47;1.30;99.90
23591;DHT22;11973;52.098;7.582;2024-01-15T17:25:13;1.20;99.90
23591;DHT22;11973;52.098;7.582;2024-01-15T17:27:39;1.20;99.90
23591;DHT22;11973;52.098;7.582;2024-01-15T17:30:05;1.40;99.90
23591;DHT22;11973;52.098;7.582;2024-01-15T17:32:33;1.20;99.90
23591;DHT22;11973;52.098;7.582;2024-01-15T17:34:59;1.40;99.90
23591;DHT22;11973;52.098;7.582;2024-01-15T17:37:25;1.30;99.90
23591;DHT22;11973;52.098;7.582;2024-01-15T17:39:52;1.30;99.90
23591;DHT22;11973;52.098;7.582;2024-01-15T17:42:18;1.30;99.90
23591;DHT22;11973;52.098;7.582;2024-01-15T17:44:44;1.30;99.90
23591;DHT22;11973;52.098;7.582;2024-01-15T17:47:10;1.30;99.90
23591;DHT22;11973;52.098;7.582;2024-01-15T17:49:37;1.20;99.90
23591;DHT22;11973;52.098;7.582;2024-01-15T17:52:04;1.20;99.90
23591;DHT22;11973;52.098;7.582;2024-01-15T17:54:29;1.20;99.90
23591;DHT22;11973;52.098;7.582;2024-01-15T17:56:57;1.30;99.90
23591;DHT22;11973;52.098;7.582;2024-01-15T17:59:22;1.40;99.90
23591;DHT22;11973;52.098;7.582;2024-01-15T18:01:48;1.20;99.90
23591;DHT22;11973;52.098;7.582;2024-01-15T18:04:14;1.20;99.90
23591;DHT22;11973;52.098;7.582;2024-01-15T18:06:45;1.30;99.90
23591;DHT22;11973;52.098;7.582;2024-01-15T18:09:13;1.10;99.90
23591;DHT22;11973;52.098;7.582;2024-01-15T18:11:42;1.20;99.90
23591;DHT22;11973;52.098;7.582;2024-01-15T18:14:08;1.20;99.90
23591;DHT22;11973;52.098;7.582;2024-01-15T18:16:34;1.10;99.90
23591;DHT22;11973;52.098;7.582;2024-01-15T18:19:00;1.20;99.90
23591;DHT22;11973;52.098;7.582;2024-01-15T18:21:26;1.30;99.90
23591;DHT22;11973;52.098;7.582;2024-01-15T18:23:52;1.20;99.90
23591;DHT22;11973;52.098;7.582;2024-01-15T18:26:18;1.20;99.90
23591;DHT22;11973;52.098;7.582;2024-01-15T18:28:43;1.30;99.90
23591;DHT22;11973;52.098;7.582;2024-01-15T18:31:10;1.20;99.90
23591;DHT22;11973;52.098;7.582;2024-01-15T18:33:37;1.20;99.90
23591;DHT22;11973;52.098;7.582;2024-01-15T18:36:06;1.30;99.90
23591;DHT22;11973;52.098;7.582;2024-01-15T18:38:35;1.20;99.90
23591;DHT22;11973;52.098;7.582;2024-01-15T18:41:01;1.20;99.90
23591;DHT22;11973;52.098;7.582;2024-01-15T18:43:31;1.20;99.90
23591;DHT22;11973;52.098;7.582;2024-01-15T18:46:06;1.20;99.90
23591;DHT22;11973;52.098;7.582;2024-01-15T18:48:33;1.20;99.90
23591;DHT22;11973;52.098;7.582;2024-01-15T18:50:59;1.20;99.90
23591;DHT22;11973;52.098;7.582;2024-01-15T18:53:25;1.30;99.90
23591;DHT22;11973;52.098;7.582;2024-01-15T18:55:51;1.20;99.90
23591;DHT22;11973;52.098;7.582;2024-01-15T18:58:19;1.20;99.90
23591;DHT22;11973;52.098;7.582;2024-01-15T19:00:44;1.40;99.90
23591;DHT22;11973;52.098;7.582;2024-01-15T19:03:11;1.40;99.90
23591;DHT22;11973;52.098;7.582;2024-01-15T19:05:39;1.20;99.90
23591;DHT22;11973;52.098;7.582;2024-01-15T19:08:05;1.20;99.90
23591;DHT22;11973;52.098;7.582;2024-01-15T19:10:31;1.30;99.90
23591;DHT22;11973;52.098;7.582;2024-01-15T19:12:57;1.20;99.90
23591;DHT22;11973;52.098;7.582;2024-01-15T19:15:23;1.20;99.90
23591;DHT22;11973;52.098;7.582;2024-01-15T19:17:49;1.20;99.90
23591;DHT22;11973;52.098;7.582;2024-01-15T19:20:15;1.30;99.90
23591;DHT22;11973;52.098;7.582;2024-01-15T19:22:42;1.20;99.90
23591;DHT22;11973;52.098;7.582;2024-01-15T19:25:11;1.20;99.90
23591;DHT22;11973;52.098;7.582;2024-01-15T19:27:37;1.30;99.90
23591;DHT22;11973;52.098;7.582;2024-01-15T19:30:12;1.30;99.90
23591;DHT22;11973;52.098;7.582;2024-01-15T19:32:43;1.20;99.90
23591;DHT22;11973;52.098;7.582;2024-01-15T19:35:09;1.20;99.90
23591;DHT22;11973;52.098;7.582;2024-01-15T19:37:35;1.30;99.90
23591;DHT22;11973;52.098;7.582;2024-01-15T19:40:02;1.20;99.90
23591;DHT22;11973;52.098;7.582;2024-01-15T19:42:28;1.20;99.90
23591;DHT22;11973;52.098;7.582;2024-01-15T19:44:54;1.10;99.90
23591;DHT22;11973;52.098;7.582;2024-01-15T19:47:20;1.20;99.90
23591;DHT22;11973;52.098;7.582;2024-01-15T19:49:46;1.30;99.90
23591;DHT22;11973;52.098;7.582;2024-01-15T19:52:13;1.20;99.90
23591;DHT22;11973;52.098;7.582;2024-01-15T19:54:40;1.30;99.90
23591;DHT22;11973;52.098;7.582;2024-01-15T19:57:06;1.20;99.90
23591;DHT22;11973;52.098;7.582;2024-01-15T19:59:32;1.20;99.90
23591;DHT22;11973;52.098;7.582;2024-01-15T20:01:58;1.20;99.90
23591;DHT22;11973;52.098;7.582;2024-01-15T20:04:25;1.20;99.90
23591;DHT22;11973;52.098;7.582;2024-01-15T20:06:51;1.20;99.90
23591;DHT22;11973;52.098;7.582;2024-01-15T20:09:16;1.30;99.90
23591;DHT22;11973;52.098;7.582;2024-01-15T20:11:42;1.30;99.90
23591;DHT22;11973;52.098;7.582;2024-01-15T20:16:13;1.20;99.90
23591;DHT22;11973;52.098;7.582;2024-01-15T20:18:40;1.30;99.90
23591;DHT22;11973;52.098;7.582;2024-01-15T20:21:06;1.20;99.90
23591;DHT22;11973;52.098;7.582;2024-01-15T20:23:34;1.20;99.90
23591;DHT22;11973;52.098;7.582;2024-01-15T20:26:02;1.20;99.90
23591;DHT22;11973;52.098;7.582;2024-01-15T20:28:28;1.30;99.90
23591;DHT22;11973;52.098;7.582;2024-01-15T20:30:54;1.20;99.90
23591;DHT22;11973;52.098;7.582;2024-01-15T20:33:25;1.20;99.90
23591;DHT22;11973;52.098;7.582;2024-01-15T20:35:51;1.30;99.90
23591;DHT22;11973;52.098;7.582;2024-01-15T20:38:31;1.10;99.90
23591;DHT22;11973;52.098;7.582;2024-01-15T20:40:57;1.20;99.90
23591;DHT22;11973;52.098;7.582;2024-01-15T20:43:23;1.10;99.90
23591;DHT22;11973;52.098;7.582;2024-01-15T20:45:49;1.20;99.90
23591;DHT22;11973;52.098;7.582;2024-01-15T20:48:15;1.10;99.90